« Back
NWS Peachtree City, Ga » Text Product » AHN Terminal Aerodrome Forecast


Printer-friendly Version
Current Version              Previous Versions:   1  2  3  4  5  6  7  8  9  

Terminal Aerodrome Forecast

901
FTUS42 KFFC 231700
TAFAHN
TAF
KAHN 231729Z 2318/2418 33006KT P6SM SCT050
     FM240200 35003KT P6SM SCT250
     FM240900 02004KT 5SM BR SCT025 BKN050
     FM241400 06008KT P6SM BKN030 PROB30 2414/2418 5SM SHRA BR
      BKN025=

USA.gov is the U.S. government's official web portal to all federal, state and local government web resources and services.